sensor_id;sensor_type;location;lat;lon;timestamp;P1;durP1;ratioP1;P2;durP2;ratioP2
55328;SDS011;41205;44.264;19.884;2023-07-29T00:01:31;6.80;;;4.40;;
55328;SDS011;41205;44.264;19.884;2023-07-29T00:03:58;5.50;;;4.35;;
55328;SDS011;41205;44.264;19.884;2023-07-29T00:06:24;7.93;;;4.40;;
55328;SDS011;41205;44.264;19.884;2023-07-29T00:08:50;8.75;;;4.32;;
55328;SDS011;41205;44.264;19.884;2023-07-29T00:11:16;7.30;;;4.82;;
55328;SDS011;41205;44.264;19.884;2023-07-29T00:13:41;6.43;;;4.85;;
55328;SDS011;41205;44.264;19.884;2023-07-29T00:16:07;6.93;;;4.45;;
55328;SDS011;41205;44.264;19.884;2023-07-29T00:18:33;7.00;;;4.40;;
55328;SDS011;41205;44.264;19.884;2023-07-29T00:20:58;5.53;;;4.40;;
55328;SDS011;41205;44.264;19.884;2023-07-29T00:23:24;4.40;;;3.95;;
55328;SDS011;41205;44.264;19.884;2023-07-29T00:25:50;5.95;;;4.63;;
55328;SDS011;41205;44.264;19.884;2023-07-29T00:28:15;7.45;;;4.60;;
55328;SDS011;41205;44.264;19.884;2023-07-29T00:30:41;7.72;;;4.82;;
55328;SDS011;41205;44.264;19.884;2023-07-29T00:33:07;6.25;;;4.82;;
55328;SDS011;41205;44.264;19.884;2023-07-29T00:35:33;6.72;;;4.28;;
55328;SDS011;41205;44.264;19.884;2023-07-29T00:37:59;6.78;;;4.43;;
55328;SDS011;41205;44.264;19.884;2023-07-29T00:40:25;5.93;;;4.85;;
55328;SDS011;41205;44.264;19.884;2023-07-29T00:42:53;7.45;;;5.32;;
55328;SDS011;41205;44.264;19.884;2023-07-29T00:45:19;6.80;;;4.43;;
55328;SDS011;41205;44.264;19.884;2023-07-29T00:47:44;6.15;;;4.63;;
55328;SDS011;41205;44.264;19.884;2023-07-29T00:50:11;5.93;;;4.65;;
55328;SDS011;41205;44.264;19.884;2023-07-29T00:52:37;7.18;;;5.07;;
55328;SDS011;41205;44.264;19.884;2023-07-29T00:55:04;5.38;;;4.25;;
55328;SDS011;41205;44.264;19.884;2023-07-29T00:57:30;7.85;;;5.82;;
55328;SDS011;41205;44.264;19.884;2023-07-29T00:59:57;7.80;;;4.80;;
55328;SDS011;41205;44.264;19.884;2023-07-29T01:02:23;5.57;;;4.65;;
55328;SDS011;41205;44.264;19.884;2023-07-29T01:04:56;10.40;;;4.43;;
55328;SDS011;41205;44.264;19.884;2023-07-29T01:13:27;8.60;;;4.82;;
55328;SDS011;41205;44.264;19.884;2023-07-29T01:16:05;7.32;;;4.45;;
55328;SDS011;41205;44.264;19.884;2023-07-29T01:18:38;7.32;;;4.20;;
55328;SDS011;41205;44.264;19.884;2023-07-29T01:21:07;6.07;;;4.63;;
55328;SDS011;41205;44.264;19.884;2023-07-29T01:23:34;6.97;;;4.85;;
55328;SDS011;41205;44.264;19.884;2023-07-29T01:26:01;7.03;;;5.05;;
55328;SDS011;41205;44.264;19.884;2023-07-29T01:28:27;7.15;;;4.55;;
55328;SDS011;41205;44.264;19.884;2023-07-29T01:30:57;6.28;;;4.80;;
55328;SDS011;41205;44.264;19.884;2023-07-29T01:33:32;5.15;;;4.65;;
55328;SDS011;41205;44.264;19.884;2023-07-29T01:36:04;8.73;;;5.03;;
55328;SDS011;41205;44.264;19.884;2023-07-29T01:38:36;6.80;;;4.43;;
55328;SDS011;41205;44.264;19.884;2023-07-29T01:41:07;6.85;;;5.28;;
55328;SDS011;41205;44.264;19.884;2023-07-29T01:43:33;9.00;;;6.00;;
55328;SDS011;41205;44.264;19.884;2023-07-29T01:46:06;6.53;;;4.70;;
55328;SDS011;41205;44.264;19.884;2023-07-29T01:48:32;9.30;;;4.72;;
55328;SDS011;41205;44.264;19.884;2023-07-29T01:50:58;6.28;;;4.95;;
55328;SDS011;41205;44.264;19.884;2023-07-29T01:53:23;7.38;;;4.65;;
55328;SDS011;41205;44.264;19.884;2023-07-29T01:55:49;6.18;;;5.03;;
55328;SDS011;41205;44.264;19.884;2023-07-29T01:58:15;6.43;;;4.18;;
55328;SDS011;41205;44.264;19.884;2023-07-29T02:00:40;9.40;;;4.90;;
55328;SDS011;41205;44.264;19.884;2023-07-29T02:03:06;9.00;;;4.80;;
55328;SDS011;41205;44.264;19.884;2023-07-29T02:05:32;6.15;;;4.95;;
55328;SDS011;41205;44.264;19.884;2023-07-29T02:07:58;4.72;;;4.00;;
55328;SDS011;41205;44.264;19.884;2023-07-29T02:10:23;6.03;;;4.88;;
55328;SDS011;41205;44.264;19.884;2023-07-29T02:12:49;7.43;;;4.70;;
55328;SDS011;41205;44.264;19.884;2023-07-29T02:15:15;6.07;;;4.47;;
55328;SDS011;41205;44.264;19.884;2023-07-29T02:17:41;6.30;;;4.55;;
55328;SDS011;41205;44.264;19.884;2023-07-29T02:20:07;7.63;;;5.72;;
55328;SDS011;41205;44.264;19.884;2023-07-29T02:22:33;6.20;;;5.18;;
55328;SDS011;41205;44.264;19.884;2023-07-29T02:24:59;5.72;;;4.72;;
55328;SDS011;41205;44.264;19.884;2023-07-29T02:27:26;12.77;;;5.20;;
55328;SDS011;41205;44.264;19.884;2023-07-29T02:29:52;7.03;;;4.55;;
55328;SDS011;41205;44.264;19.884;2023-07-29T02:32:18;8.70;;;4.78;;
55328;SDS011;41205;44.264;19.884;2023-07-29T02:34:44;6.65;;;5.03;;
55328;SDS011;41205;44.264;19.884;2023-07-29T02:37:10;7.05;;;5.25;;
55328;SDS011;41205;44.264;19.884;2023-07-29T02:39:36;8.68;;;4.75;;
55328;SDS011;41205;44.264;19.884;2023-07-29T02:42:02;5.90;;;4.97;;
55328;SDS011;41205;44.264;19.884;2023-07-29T02:44:28;5.97;;;4.80;;
55328;SDS011;41205;44.264;19.884;2023-07-29T02:46:54;6.95;;;4.47;;
55328;SDS011;41205;44.264;19.884;2023-07-29T02:49:21;6.25;;;4.95;;
55328;SDS011;41205;44.264;19.884;2023-07-29T02:51:47;6.80;;;5.15;;
55328;SDS011;41205;44.264;19.884;2023-07-29T02:54:13;6.78;;;4.82;;
55328;SDS011;41205;44.264;19.884;2023-07-29T02:56:39;8.63;;;5.55;;
55328;SDS011;41205;44.264;19.884;2023-07-29T02:59:05;5.93;;;4.93;;
55328;SDS011;41205;44.264;19.884;2023-07-29T03:01:31;6.95;;;4.90;;
55328;SDS011;41205;44.264;19.884;2023-07-29T03:03:56;7.75;;;4.65;;
55328;SDS011;41205;44.264;19.884;2023-07-29T03:06:22;6.97;;;5.47;;
55328;SDS011;41205;44.264;19.884;2023-07-29T03:08:48;9.20;;;5.28;;
55328;SDS011;41205;44.264;19.884;2023-07-29T03:11:15;7.93;;;5.53;;
55328;SDS011;41205;44.264;19.884;2023-07-29T03:13:41;6.70;;;5.10;;
55328;SDS011;41205;44.264;19.884;2023-07-29T03:16:11;6.03;;;5.03;;
55328;SDS011;41205;44.264;19.884;2023-07-29T03:18:41;6.15;;;4.75;;
55328;SDS011;41205;44.264;19.884;2023-07-29T03:21:08;6.53;;;4.65;;
55328;SDS011;41205;44.264;19.884;2023-07-29T03:23:34;10.93;;;4.88;;
55328;SDS011;41205;44.264;19.884;2023-07-29T03:26:01;5.55;;;4.03;;
55328;SDS011;41205;44.264;19.884;2023-07-29T03:28:29;6.57;;;5.05;;
55328;SDS011;41205;44.264;19.884;2023-07-29T03:30:57;10.15;;;5.50;;
55328;SDS011;41205;44.264;19.884;2023-07-29T03:33:23;7.85;;;5.22;;
55328;SDS011;41205;44.264;19.884;2023-07-29T03:35:50;5.35;;;4.38;;
55328;SDS011;41205;44.264;19.884;2023-07-29T03:38:16;6.28;;;4.75;;
55328;SDS011;41205;44.264;19.884;2023-07-29T03:40:42;8.13;;;5.38;;
55328;SDS011;41205;44.264;19.884;2023-07-29T03:43:08;8.98;;;4.45;;
55328;SDS011;41205;44.264;19.884;2023-07-29T03:45:34;6.03;;;4.45;;
55328;SDS011;41205;44.264;19.884;2023-07-29T03:48:00;6.03;;;5.03;;
55328;SDS011;41205;44.264;19.884;2023-07-29T03:50:26;5.60;;;4.45;;
55328;SDS011;41205;44.264;19.884;2023-07-29T03:52:53;6.85;;;4.72;;
55328;SDS011;41205;44.264;19.884;2023-07-29T03:55:18;5.63;;;4.75;;
55328;SDS011;41205;44.264;19.884;2023-07-29T03:57:44;6.85;;;5.22;;
55328;SDS011;41205;44.264;19.884;2023-07-29T04:00:10;6.60;;;5.10;;
55328;SDS011;41205;44.264;19.884;2023-07-29T04:02:36;5.93;;;4.78;;
55328;SDS011;41205;44.264;19.884;2023-07-29T04:05:03;8.13;;;5.03;;
55328;SDS011;41205;44.264;19.884;2023-07-29T04:07:29;6.97;;;5.57;;
55328;SDS011;41205;44.264;19.884;2023-07-29T04:09:55;5.80;;;4.10;;
55328;SDS011;41205;44.264;19.884;2023-07-29T04:12:21;7.40;;;4.45;;
55328;SDS011;41205;44.264;19.884;2023-07-29T04:14:48;6.07;;;5.07;;
55328;SDS011;41205;44.264;19.884;2023-07-29T04:17:13;9.65;;;5.40;;
55328;SDS011;41205;44.264;19.884;2023-07-29T04:19:39;6.28;;;4.53;;
55328;SDS011;41205;44.264;19.884;2023-07-29T04:22:05;7.07;;;4.80;;
55328;SDS011;41205;44.264;19.884;2023-07-29T04:24:31;7.57;;;4.80;;
55328;SDS011;41205;44.264;19.884;2023-07-29T04:26:56;9.60;;;5.03;;
55328;SDS011;41205;44.264;19.884;2023-07-29T04:29:22;10.00;;;4.97;;
55328;SDS011;41205;44.264;19.884;2023-07-29T04:31:48;5.72;;;4.20;;
55328;SDS011;41205;44.264;19.884;2023-07-29T04:34:15;5.30;;;4.80;;
55328;SDS011;41205;44.264;19.884;2023-07-29T04:36:40;7.55;;;4.60;;
55328;SDS011;41205;44.264;19.884;2023-07-29T04:39:06;10.00;;;4.45;;
55328;SDS011;41205;44.264;19.884;2023-07-29T04:41:32;5.80;;;4.45;;
55328;SDS011;41205;44.264;19.884;2023-07-29T04:43:58;6.60;;;4.88;;
55328;SDS011;41205;44.264;19.884;2023-07-29T04:46:24;7.00;;;5.10;;
55328;SDS011;41205;44.264;19.884;2023-07-29T04:48:49;8.85;;;4.90;;
55328;SDS011;41205;44.264;19.884;2023-07-29T04:51:15;10.50;;;5.32;;
55328;SDS011;41205;44.264;19.884;2023-07-29T04:53:41;7.70;;;4.88;;
55328;SDS011;41205;44.264;19.884;2023-07-29T04:56:06;5.53;;;4.60;;
55328;SDS011;41205;44.264;19.884;2023-07-29T04:58:32;6.53;;;4.97;;
55328;SDS011;41205;44.264;19.884;2023-07-29T05:01:00;6.82;;;5.35;;
55328;SDS011;41205;44.264;19.884;2023-07-29T05:03:27;10.70;;;5.90;;
55328;SDS011;41205;44.264;19.884;2023-07-29T05:05:53;5.75;;;4.85;;
55328;SDS011;41205;44.264;19.884;2023-07-29T05:08:20;7.28;;;5.75;;
55328;SDS011;41205;44.264;19.884;2023-07-29T05:10:50;9.50;;;5.88;;
55328;SDS011;41205;44.264;19.884;2023-07-29T05:13:16;5.75;;;5.18;;
55328;SDS011;41205;44.264;19.884;2023-07-29T05:15:42;5.72;;;5.20;;
55328;SDS011;41205;44.264;19.884;2023-07-29T05:18:08;6.13;;;5.22;;
55328;SDS011;41205;44.264;19.884;2023-07-29T05:20:34;7.93;;;5.93;;
55328;SDS011;41205;44.264;19.884;2023-07-29T05:22:59;7.78;;;5.65;;
55328;SDS011;41205;44.264;19.884;2023-07-29T05:25:25;9.05;;;5.70;;
55328;SDS011;41205;44.264;19.884;2023-07-29T05:27:51;6.78;;;6.07;;
55328;SDS011;41205;44.264;19.884;2023-07-29T05:30:17;9.30;;;5.90;;
55328;SDS011;41205;44.264;19.884;2023-07-29T05:32:43;7.53;;;6.00;;
55328;SDS011;41205;44.264;19.884;2023-07-29T05:35:08;6.85;;;5.82;;
55328;SDS011;41205;44.264;19.884;2023-07-29T05:37:37;6.88;;;6.28;;
55328;SDS011;41205;44.264;19.884;2023-07-29T05:40:05;6.28;;;5.68;;
55328;SDS011;41205;44.264;19.884;2023-07-29T05:42:32;9.30;;;5.88;;
55328;SDS011;41205;44.264;19.884;2023-07-29T05:44:58;7.30;;;6.50;;
55328;SDS011;41205;44.264;19.884;2023-07-29T05:47:23;8.60;;;6.80;;
55328;SDS011;41205;44.264;19.884;2023-07-29T05:49:49;9.05;;;6.97;;
55328;SDS011;41205;44.264;19.884;2023-07-29T05:52:15;7.30;;;5.53;;
55328;SDS011;41205;44.264;19.884;2023-07-29T05:54:41;7.40;;;6.80;;
55328;SDS011;41205;44.264;19.884;2023-07-29T05:57:08;7.72;;;7.03;;
55328;SDS011;41205;44.264;19.884;2023-07-29T05:59:35;12.30;;;5.60;;
55328;SDS011;41205;44.264;19.884;2023-07-29T06:02:00;7.43;;;6.63;;
55328;SDS011;41205;44.264;19.884;2023-07-29T06:04:26;5.93;;;5.20;;
55328;SDS011;41205;44.264;19.884;2023-07-29T06:06:52;6.93;;;5.60;;
55328;SDS011;41205;44.264;19.884;2023-07-29T06:09:18;7.20;;;6.57;;
55328;SDS011;41205;44.264;19.884;2023-07-29T06:11:43;9.35;;;6.70;;
55328;SDS011;41205;44.264;19.884;2023-07-29T06:14:09;6.68;;;5.43;;
55328;SDS011;41205;44.264;19.884;2023-07-29T06:16:35;6.82;;;5.70;;
55328;SDS011;41205;44.264;19.884;2023-07-29T06:19:00;6.80;;;5.70;;
55328;SDS011;41205;44.264;19.884;2023-07-29T06:21:26;6.70;;;5.72;;
55328;SDS011;41205;44.264;19.884;2023-07-29T06:23:52;6.47;;;5.60;;
55328;SDS011;41205;44.264;19.884;2023-07-29T06:26:18;7.25;;;5.85;;
55328;SDS011;41205;44.264;19.884;2023-07-29T06:28:43;6.72;;;5.63;;
55328;SDS011;41205;44.264;19.884;2023-07-29T06:31:09;7.65;;;5.55;;
55328;SDS011;41205;44.264;19.884;2023-07-29T06:33:35;9.27;;;6.30;;
55328;SDS011;41205;44.264;19.884;2023-07-29T06:36:01;7.95;;;5.32;;
55328;SDS011;41205;44.264;19.884;2023-07-29T06:38:26;11.00;;;5.50;;
55328;SDS011;41205;44.264;19.884;2023-07-29T06:40:52;6.82;;;6.22;;
55328;SDS011;41205;44.264;19.884;2023-07-29T06:43:18;7.40;;;6.70;;
55328;SDS011;41205;44.264;19.884;2023-07-29T06:45:43;8.90;;;7.88;;
55328;SDS011;41205;44.264;19.884;2023-07-29T06:48:09;7.90;;;6.05;;
55328;SDS011;41205;44.264;19.884;2023-07-29T06:50:35;6.90;;;6.28;;
55328;SDS011;41205;44.264;19.884;2023-07-29T06:53:00;11.70;;;7.43;;
55328;SDS011;41205;44.264;19.884;2023-07-29T06:55:26;8.40;;;7.60;;
55328;SDS011;41205;44.264;19.884;2023-07-29T06:57:52;10.30;;;7.75;;
55328;SDS011;41205;44.264;19.884;2023-07-29T07:00:17;8.20;;;7.47;;
55328;SDS011;41205;44.264;19.884;2023-07-29T07:02:43;6.80;;;6.10;;
55328;SDS011;41205;44.264;19.884;2023-07-29T07:05:09;8.18;;;7.22;;
55328;SDS011;41205;44.264;19.884;2023-07-29T07:07:35;10.38;;;7.13;;
55328;SDS011;41205;44.264;19.884;2023-07-29T07:10:00;10.57;;;9.27;;
55328;SDS011;41205;44.264;19.884;2023-07-29T07:12:26;10.40;;;9.27;;
55328;SDS011;41205;44.264;19.884;2023-07-29T07:14:52;10.52;;;9.73;;
55328;SDS011;41205;44.264;19.884;2023-07-29T07:17:18;10.60;;;9.90;;
55328;SDS011;41205;44.264;19.884;2023-07-29T07:19:44;10.82;;;10.02;;
55328;SDS011;41205;44.264;19.884;2023-07-29T07:22:11;11.38;;;10.32;;
55328;SDS011;41205;44.264;19.884;2023-07-29T07:24:37;11.50;;;10.48;;
55328;SDS011;41205;44.264;19.884;2023-07-29T07:27:02;11.45;;;10.55;;
55328;SDS011;41205;44.264;19.884;2023-07-29T07:29:28;11.48;;;10.32;;
55328;SDS011;41205;44.264;19.884;2023-07-29T07:31:55;13.35;;;12.13;;
55328;SDS011;41205;44.264;19.884;2023-07-29T07:34:21;12.02;;;10.93;;
55328;SDS011;41205;44.264;19.884;2023-07-29T07:36:48;9.77;;;8.93;;
55328;SDS011;41205;44.264;19.884;2023-07-29T07:39:14;12.20;;;11.23;;
55328;SDS011;41205;44.264;19.884;2023-07-29T07:41:40;12.27;;;11.38;;
55328;SDS011;41205;44.264;19.884;2023-07-29T07:44:06;12.85;;;11.98;;
55328;SDS011;41205;44.264;19.884;2023-07-29T07:46:32;11.38;;;10.38;;
55328;SDS011;41205;44.264;19.884;2023-07-29T07:48:58;12.20;;;11.40;;
55328;SDS011;41205;44.264;19.884;2023-07-29T07:51:23;12.75;;;11.95;;
55328;SDS011;41205;44.264;19.884;2023-07-29T07:53:49;13.32;;;12.27;;
55328;SDS011;41205;44.264;19.884;2023-07-29T07:56:15;12.35;;;11.35;;
55328;SDS011;41205;44.264;19.884;2023-07-29T07:58:41;12.00;;;11.10;;
55328;SDS011;41205;44.264;19.884;2023-07-29T08:01:07;11.98;;;11.18;;
55328;SDS011;41205;44.264;19.884;2023-07-29T08:03:34;13.05;;;11.93;;
55328;SDS011;41205;44.264;19.884;2023-07-29T08:06:00;14.45;;;13.45;;
55328;SDS011;41205;44.264;19.884;2023-07-29T08:08:26;14.05;;;13.05;;
55328;SDS011;41205;44.264;19.884;2023-07-29T08:10:58;12.23;;;11.25;;
55328;SDS011;41205;44.264;19.884;2023-07-29T08:13:25;13.25;;;11.85;;
55328;SDS011;41205;44.264;19.884;2023-07-29T08:15:52;11.50;;;10.65;;
55328;SDS011;41205;44.264;19.884;2023-07-29T08:18:18;12.20;;;11.40;;
55328;SDS011;41205;44.264;19.884;2023-07-29T08:20:54;12.63;;;11.65;;
55328;SDS011;41205;44.264;19.884;2023-07-29T08:23:22;10.98;;;10.02;;
55328;SDS011;41205;44.264;19.884;2023-07-29T08:25:56;14.23;;;12.98;;
55328;SDS011;41205;44.264;19.884;2023-07-29T08:28:33;11.45;;;10.35;;
55328;SDS011;41205;44.264;19.884;2023-07-29T08:31:03;10.68;;;9.70;;
55328;SDS011;41205;44.264;19.884;2023-07-29T08:33:29;9.75;;;8.73;;
55328;SDS011;41205;44.264;19.884;2023-07-29T08:35:55;8.00;;;7.30;;
55328;SDS011;41205;44.264;19.884;2023-07-29T08:38:22;10.52;;;7.07;;
55328;SDS011;41205;44.264;19.884;2023-07-29T08:43:27;10.85;;;7.45;;
55328;SDS011;41205;44.264;19.884;2023-07-29T08:45:57;7.60;;;6.82;;
55328;SDS011;41205;44.264;19.884;2023-07-29T08:48:29;7.50;;;6.80;;
55328;SDS011;41205;44.264;19.884;2023-07-29T08:51:07;7.63;;;6.93;;
55328;SDS011;41205;44.264;19.884;2023-07-29T08:53:34;8.23;;;6.70;;
55328;SDS011;41205;44.264;19.884;2023-07-29T08:56:01;8.55;;;7.05;;
55328;SDS011;41205;44.264;19.884;2023-07-29T08:58:27;8.10;;;7.30;;
55328;SDS011;41205;44.264;19.884;2023-07-29T09:00:53;9.57;;;7.95;;
55328;SDS011;41205;44.264;19.884;2023-07-29T09:03:19;7.43;;;6.72;;
55328;SDS011;41205;44.264;19.884;2023-07-29T09:05:46;7.88;;;6.75;;
55328;SDS011;41205;44.264;19.884;2023-07-29T09:08:13;8.82;;;6.82;;
55328;SDS011;41205;44.264;19.884;2023-07-29T09:10:39;8.93;;;6.72;;
55328;SDS011;41205;44.264;19.884;2023-07-29T09:13:05;8.02;;;6.00;;
55328;SDS011;41205;44.264;19.884;2023-07-29T09:15:31;8.50;;;6.40;;
55328;SDS011;41205;44.264;19.884;2023-07-29T09:17:59;9.43;;;7.28;;
55328;SDS011;41205;44.264;19.884;2023-07-29T09:20:33;8.00;;;6.57;;
55328;SDS011;41205;44.264;19.884;2023-07-29T09:22:59;10.35;;;6.70;;
55328;SDS011;41205;44.264;19.884;2023-07-29T09:25:25;8.98;;;7.22;;
55328;SDS011;41205;44.264;19.884;2023-07-29T09:27:52;8.00;;;6.47;;
55328;SDS011;41205;44.264;19.884;2023-07-29T09:30:24;9.35;;;6.57;;
55328;SDS011;41205;44.264;19.884;2023-07-29T09:32:54;7.53;;;6.50;;
55328;SDS011;41205;44.264;19.884;2023-07-29T09:35:23;8.75;;;6.57;;
55328;SDS011;41205;44.264;19.884;2023-07-29T09:37:57;9.45;;;7.05;;
55328;SDS011;41205;44.264;19.884;2023-07-29T09:40:23;7.03;;;6.32;;
55328;SDS011;41205;44.264;19.884;2023-07-29T09:42:50;8.73;;;6.90;;
55328;SDS011;41205;44.264;19.884;2023-07-29T09:47:47;8.77;;;7.55;;
55328;SDS011;41205;44.264;19.884;2023-07-29T09:50:12;7.20;;;6.50;;
55328;SDS011;41205;44.264;19.884;2023-07-29T09:52:38;7.30;;;6.60;;
55328;SDS011;41205;44.264;19.884;2023-07-29T09:55:04;8.32;;;6.45;;
55328;SDS011;41205;44.264;19.884;2023-07-29T09:57:31;10.55;;;7.20;;
55328;SDS011;41205;44.264;19.884;2023-07-29T09:59:57;10.15;;;7.13;;
55328;SDS011;41205;44.264;19.884;2023-07-29T10:02:23;8.18;;;6.63;;
55328;SDS011;41205;44.264;19.884;2023-07-29T10:04:51;7.57;;;6.75;;
55328;SDS011;41205;44.264;19.884;2023-07-29T10:07:17;10.20;;;6.38;;
55328;SDS011;41205;44.264;19.884;2023-07-29T10:09:44;9.13;;;6.97;;
55328;SDS011;41205;44.264;19.884;2023-07-29T10:12:11;10.43;;;6.47;;
55328;SDS011;41205;44.264;19.884;2023-07-29T10:14:38;9.02;;;7.07;;
55328;SDS011;41205;44.264;19.884;2023-07-29T10:17:04;7.50;;;6.43;;
55328;SDS011;41205;44.264;19.884;2023-07-29T10:19:31;7.75;;;6.63;;
55328;SDS011;41205;44.264;19.884;2023-07-29T10:21:59;9.85;;;6.85;;
55328;SDS011;41205;44.264;19.884;2023-07-29T10:24:32;7.97;;;7.18;;
55328;SDS011;41205;44.264;19.884;2023-07-29T10:26:59;8.27;;;6.43;;
55328;SDS011;41205;44.264;19.884;2023-07-29T10:29:30;7.18;;;6.45;;
55328;SDS011;41205;44.264;19.884;2023-07-29T10:31:58;7.87;;;6.17;;
55328;SDS011;41205;44.264;19.884;2023-07-29T10:34:27;10.75;;;6.40;;
55328;SDS011;41205;44.264;19.884;2023-07-29T10:36:54;7.78;;;6.05;;
55328;SDS011;41205;44.264;19.884;2023-07-29T10:39:20;10.18;;;6.32;;
55328;SDS011;41205;44.264;19.884;2023-07-29T10:52:14;7.63;;;6.22;;
55328;SDS011;41205;44.264;19.884;2023-07-29T10:54:45;8.38;;;7.13;;
55328;SDS011;41205;44.264;19.884;2023-07-29T10:57:13;9.10;;;7.05;;
55328;SDS011;41205;44.264;19.884;2023-07-29T10:59:40;7.22;;;6.40;;
55328;SDS011;41205;44.264;19.884;2023-07-29T11:02:17;8.50;;;6.60;;
55328;SDS011;41205;44.264;19.884;2023-07-29T11:04:47;9.95;;;7.22;;
55328;SDS011;41205;44.264;19.884;2023-07-29T11:10:02;7.82;;;6.43;;
55328;SDS011;41205;44.264;19.884;2023-07-29T11:17:46;8.02;;;7.03;;
55328;SDS011;41205;44.264;19.884;2023-07-29T11:20:14;8.02;;;6.00;;
55328;SDS011;41205;44.264;19.884;2023-07-29T11:22:41;10.00;;;6.65;;
55328;SDS011;41205;44.264;19.884;2023-07-29T11:25:08;9.13;;;7.60;;
55328;SDS011;41205;44.264;19.884;2023-07-29T11:27:35;7.47;;;6.15;;
55328;SDS011;41205;44.264;19.884;2023-07-29T11:30:03;8.18;;;5.63;;
55328;SDS011;41205;44.264;19.884;2023-07-29T11:32:30;12.40;;;6.93;;
55328;SDS011;41205;44.264;19.884;2023-07-29T11:35:00;7.65;;;6.95;;
55328;SDS011;41205;44.264;19.884;2023-07-29T11:37:27;11.45;;;6.15;;
55328;SDS011;41205;44.264;19.884;2023-07-29T11:39:53;9.23;;;5.75;;
55328;SDS011;41205;44.264;19.884;2023-07-29T11:42:18;6.72;;;6.13;;
55328;SDS011;41205;44.264;19.884;2023-07-29T11:44:45;7.43;;;6.20;;
55328;SDS011;41205;44.264;19.884;2023-07-29T11:47:11;6.43;;;5.78;;
55328;SDS011;41205;44.264;19.884;2023-07-29T11:49:38;8.80;;;6.47;;
55328;SDS011;41205;44.264;19.884;2023-07-29T11:52:05;7.15;;;6.32;;
55328;SDS011;41205;44.264;19.884;2023-07-29T11:54:34;8.23;;;6.50;;
55328;SDS011;41205;44.264;19.884;2023-07-29T11:57:00;7.30;;;6.43;;
55328;SDS011;41205;44.264;19.884;2023-07-29T11:59:27;6.75;;;6.15;;
55328;SDS011;41205;44.264;19.884;2023-07-29T12:01:53;8.75;;;6.75;;
55328;SDS011;41205;44.264;19.884;2023-07-29T12:04:19;7.15;;;6.47;;
55328;SDS011;41205;44.264;19.884;2023-07-29T12:06:45;8.18;;;6.68;;
55328;SDS011;41205;44.264;19.884;2023-07-29T12:09:11;7.40;;;6.60;;
55328;SDS011;41205;44.264;19.884;2023-07-29T12:11:38;13.68;;;7.60;;
55328;SDS011;41205;44.264;19.884;2023-07-29T12:14:07;7.97;;;7.15;;
55328;SDS011;41205;44.264;19.884;2023-07-29T12:16:39;9.00;;;8.10;;
55328;SDS011;41205;44.264;19.884;2023-07-29T12:19:12;8.90;;;7.45;;
55328;SDS011;41205;44.264;19.884;2023-07-29T12:21:39;11.50;;;7.00;;
55328;SDS011;41205;44.264;19.884;2023-07-29T12:24:08;8.10;;;7.30;;
55328;SDS011;41205;44.264;19.884;2023-07-29T12:26:37;8.75;;;7.65;;
55328;SDS011;41205;44.264;19.884;2023-07-29T12:29:15;7.50;;;6.50;;
55328;SDS011;41205;44.264;19.884;2023-07-29T12:31:44;7.75;;;7.05;;
55328;SDS011;41205;44.264;19.884;2023-07-29T12:34:17;8.15;;;7.00;;
55328;SDS011;41205;44.264;19.884;2023-07-29T12:36:47;9.20;;;6.38;;
55328;SDS011;41205;44.264;19.884;2023-07-29T12:39:21;11.85;;;6.82;;
55328;SDS011;41205;44.264;19.884;2023-07-29T12:41:58;7.88;;;7.07;;
55328;SDS011;41205;44.264;19.884;2023-07-29T12:44:31;12.30;;;7.85;;
55328;SDS011;41205;44.264;19.884;2023-07-29T12:46:58;8.32;;;7.43;;
55328;SDS011;41205;44.264;19.884;2023-07-29T12:49:28;8.68;;;7.82;;
55328;SDS011;41205;44.264;19.884;2023-07-29T12:51:55;9.23;;;7.20;;
55328;SDS011;41205;44.264;19.884;2023-07-29T12:54:24;11.02;;;8.00;;
55328;SDS011;41205;44.264;19.884;2023-07-29T12:56:50;7.88;;;7.07;;
55328;SDS011;41205;44.264;19.884;2023-07-29T12:59:16;7.63;;;6.93;;
55328;SDS011;41205;44.264;19.884;2023-07-29T13:01:42;8.15;;;7.18;;
55328;SDS011;41205;44.264;19.884;2023-07-29T13:04:09;8.07;;;7.35;;
55328;SDS011;41205;44.264;19.884;2023-07-29T13:06:35;10.20;;;8.27;;
55328;SDS011;41205;44.264;19.884;2023-07-29T13:09:01;8.10;;;7.30;;
55328;SDS011;41205;44.264;19.884;2023-07-29T13:11:27;10.13;;;7.65;;
55328;SDS011;41205;44.264;19.884;2023-07-29T13:13:52;8.25;;;7.55;;
55328;SDS011;41205;44.264;19.884;2023-07-29T13:16:18;10.95;;;7.70;;
55328;SDS011;41205;44.264;19.884;2023-07-29T13:18:43;9.25;;;8.23;;
55328;SDS011;41205;44.264;19.884;2023-07-29T13:21:09;10.35;;;8.68;;
55328;SDS011;41205;44.264;19.884;2023-07-29T13:23:35;12.10;;;8.52;;
55328;SDS011;41205;44.264;19.884;2023-07-29T13:26:01;12.32;;;8.35;;
55328;SDS011;41205;44.264;19.884;2023-07-29T13:28:27;9.15;;;8.18;;
55328;SDS011;41205;44.264;19.884;2023-07-29T13:30:53;9.02;;;8.23;;
55328;SDS011;41205;44.264;19.884;2023-07-29T13:33:18;10.32;;;7.65;;
55328;SDS011;41205;44.264;19.884;2023-07-29T13:35:44;8.55;;;7.72;;
55328;SDS011;41205;44.264;19.884;2023-07-29T13:38:10;8.15;;;7.43;;
55328;SDS011;41205;44.264;19.884;2023-07-29T13:40:36;7.55;;;6.85;;
55328;SDS011;41205;44.264;19.884;2023-07-29T13:43:02;7.63;;;6.70;;
55328;SDS011;41205;44.264;19.884;2023-07-29T13:45:28;8.30;;;7.50;;
55328;SDS011;41205;44.264;19.884;2023-07-29T13:47:53;9.88;;;8.98;;
55328;SDS011;41205;44.264;19.884;2023-07-29T13:50:19;9.00;;;7.70;;
55328;SDS011;41205;44.264;19.884;2023-07-29T13:52:45;7.97;;;7.18;;
55328;SDS011;41205;44.264;19.884;2023-07-29T13:55:11;9.30;;;8.02;;
55328;SDS011;41205;44.264;19.884;2023-07-29T13:57:37;8.65;;;7.05;;
55328;SDS011;41205;44.264;19.884;2023-07-29T14:00:04;8.75;;;7.85;;
55328;SDS011;41205;44.264;19.884;2023-07-29T14:02:31;12.95;;;8.75;;
55328;SDS011;41205;44.264;19.884;2023-07-29T14:04:57;10.60;;;8.75;;
55328;SDS011;41205;44.264;19.884;2023-07-29T14:07:22;9.43;;;7.70;;
55328;SDS011;41205;44.264;19.884;2023-07-29T14:09:48;13.23;;;7.57;;
55328;SDS011;41205;44.264;19.884;2023-07-29T14:12:14;8.25;;;7.47;;
55328;SDS011;41205;44.264;19.884;2023-07-29T14:14:40;10.93;;;7.63;;
55328;SDS011;41205;44.264;19.884;2023-07-29T14:17:06;8.02;;;7.28;;
55328;SDS011;41205;44.264;19.884;2023-07-29T14:19:33;8.98;;;7.32;;
55328;SDS011;41205;44.264;19.884;2023-07-29T14:21:59;9.77;;;8.77;;
55328;SDS011;41205;44.264;19.884;2023-07-29T14:24:25;8.13;;;7.30;;
55328;SDS011;41205;44.264;19.884;2023-07-29T14:26:51;11.65;;;8.93;;
55328;SDS011;41205;44.264;19.884;2023-07-29T14:29:16;8.98;;;8.10;;
55328;SDS011;41205;44.264;19.884;2023-07-29T14:31:42;8.52;;;7.70;;
55328;SDS011;41205;44.264;19.884;2023-07-29T14:34:08;13.13;;;8.73;;
55328;SDS011;41205;44.264;19.884;2023-07-29T14:36:34;8.77;;;7.97;;
55328;SDS011;41205;44.264;19.884;2023-07-29T14:39:00;9.68;;;8.48;;
55328;SDS011;41205;44.264;19.884;2023-07-29T14:41:26;9.20;;;8.23;;
55328;SDS011;41205;44.264;19.884;2023-07-29T14:43:51;12.63;;;7.43;;
55328;SDS011;41205;44.264;19.884;2023-07-29T14:46:17;12.48;;;9.00;;
55328;SDS011;41205;44.264;19.884;2023-07-29T14:48:43;10.63;;;8.50;;
55328;SDS011;41205;44.264;19.884;2023-07-29T14:51:08;9.75;;;8.77;;
55328;SDS011;41205;44.264;19.884;2023-07-29T14:53:34;10.27;;;9.27;;
55328;SDS011;41205;44.264;19.884;2023-07-29T14:56:00;10.38;;;9.48;;
55328;SDS011;41205;44.264;19.884;2023-07-29T14:58:25;9.60;;;8.70;;